Time;durP1;ratioP1;P1;durP2;ratioP2;P2;SDS_P1;SDS_P2;PMS_P1;PMS_P2;Temp;Humidity;BMP_temperature;BMP_pressure;BME280_temperature;BME280_humidity;BME280_pressure;Samples;Min_cycle;Max_cycle;Signal;HPM_P1;HPM_P2
2021/01/26 00:03:28;;;;;;;;;;;-0.20;99.90;;;-1.28;89.88;95177.56;10362003;28;2382;-85
2021/01/26 00:08:30;;;;;;;;;;;-0.30;99.90;;;-1.28;91.07;95184.69;10379376;28;2032;-85
2021/01/26 00:13:32;;;;;;;;;;;0.60;99.90;;;-1.29;90.34;95196.25;10375932;28;2264;-83
2021/01/26 00:18:34;;;;;;;;;;;-0.30;99.90;;;-1.23;91.10;95190.94;10361467;28;2344;-83
2021/01/26 00:23:38;;;;;;;;;;;0.40;99.90;;;-1.20;91.75;95195.78;10370214;28;2327;-84
2021/01/26 00:28:41;;;;;;;;;;;-0.30;99.90;;;-1.17;91.50;95189.28;10379757;28;2309;-83
2021/01/26 00:33:45;;;;;;;;;;;-0.20;99.90;;;-1.19;91.52;95196.59;10359812;28;2393;-84
2021/01/26 00:38:47;;;;;;;;;;;-0.20;99.90;;;-1.18;91.91;95192.94;10385273;28;2282;-84
2021/01/26 00:43:49;;;;;;;;;;;-0.20;99.90;;;-1.18;91.63;95199.03;10367471;28;1889;-82
2021/01/26 00:48:51;;;;;;;;;;;1.10;99.90;;;-1.11;91.45;95210.31;10375409;28;2393;-84
2021/01/26 00:53:53;;;;;;;;;;;0.70;99.90;;;-1.14;91.49;95208.13;10370040;28;2291;-83
2021/01/26 00:58:55;;;;;;;;;;;-0.10;99.90;;;-1.14;90.78;95221.31;10354153;28;2357;-85
2021/01/26 01:03:56;;;;;;;;;;;-0.20;99.90;;;-1.13;90.74;95232.66;10357382;28;1958;-84
2021/01/26 01:08:59;;;;;;;;;;;1.40;99.90;;;-1.18;91.05;95225.38;10377930;28;2067;-85
2021/01/26 01:14:03;;;;;;;;;;;-0.20;99.90;;;-1.13;91.29;95233.47;10369036;28;1910;-85
2021/01/26 01:19:05;;;;;;;;;;;-0.10;99.90;;;-1.17;91.08;95242.03;10369984;28;2658;-86
2021/01/26 01:24:09;;;;;;;;;;;2.00;99.90;;;-1.20;90.76;95245.91;10400519;28;1552;-86
2021/01/26 01:29:13;;;;;;;;;;;-0.20;99.90;;;-1.23;90.81;95248.94;10393495;28;1586;-85
2021/01/26 01:34:15;;;;;;;;;;;-0.20;99.90;;;-1.16;91.04;95265.53;10392878;28;1985;-84
2021/01/26 01:39:18;;;;;;;;;;;-0.20;99.90;;;-1.18;91.09;95264.16;10390377;28;1249;-85
2021/01/26 01:44:20;;;;;;;;;;;2.10;99.90;;;-1.24;90.95;95265.81;10385655;28;2594;-83
2021/01/26 01:49:24;;;;;;;;;;;-0.20;99.90;;;-1.23;90.51;95274.50;10395153;28;2315;-84
2021/01/26 01:54:26;;;;;;;;;;;-0.30;99.90;;;-1.29;90.54;95276.16;10366373;28;2513;-84
2021/01/26 01:59:28;;;;;;;;;;;-0.30;99.90;;;-1.31;90.76;95272.94;10357519;28;1872;-85
2021/01/26 02:04:32;;;;;;;;;;;-0.30;99.90;;;-1.30;89.71;95284.28;10376694;28;2384;-85
2021/01/26 02:09:34;;;;;;;;;;;-0.30;99.90;;;-1.33;90.67;95279.47;10371128;28;1403;-84
2021/01/26 02:14:36;;;;;;;;;;;1.30;99.90;;;-1.30;90.28;95286.94;10377732;28;1919;-84
2021/01/26 02:19:38;;;;;;;;;;;-0.30;99.90;;;-1.30;90.23;95308.84;10383583;28;1548;-84
2021/01/26 02:24:40;;;;;;;;;;;-0.30;99.90;;;-1.24;90.56;95305.34;10410017;28;2376;-83
2021/01/26 02:29:42;;;;;;;;;;;-0.30;99.90;;;-1.32;89.82;95310.88;10394020;28;1896;-85
2021/01/26 02:34:44;;;;;;;;;;;-0.30;99.90;;;-1.26;90.17;95312.69;10360906;28;2441;-84
2021/01/26 02:39:46;;;;;;;;;;;-0.30;99.90;;;-1.25;90.47;95319.56;10364730;28;2209;-86
2021/01/26 02:44:50;;;;;;;;;;;1.00;99.90;;;-1.29;89.57;95325.47;10352935;28;2130;-85
2021/01/26 02:49:52;;;;;;;;;;;1.10;99.90;;;-1.32;89.27;95334.63;10370037;28;2386;-84
2021/01/26 02:54:54;;;;;;;;;;;-0.40;99.90;;;-1.39;89.51;95333.84;10378735;28;2571;-85
2021/01/26 02:59:56;;;;;;;;;;;-0.30;99.90;;;-1.41;88.77;95346.41;10386745;28;2441;-85
2021/01/26 03:04:58;;;;;;;;;;;-0.40;99.90;;;-1.45;nan;95350.50;10397895;28;2058;-86
2021/01/26 03:10:00;;;;;;;;;;;-0.50;99.90;;;-1.46;88.28;95360.22;10396557;28;2475;-86
2021/01/26 03:15:05;;;;;;;;;;;-0.50;99.90;;;-1.56;88.95;95366.94;10391566;28;1979;-83
2021/01/26 03:20:09;;;;;;;;;;;-0.50;99.90;;;-1.54;88.95;95370.19;10391268;28;2528;-81
2021/01/26 03:25:11;;;;;;;;;;;1.60;99.90;;;-1.55;87.70;95387.00;10381214;28;2440;-84
2021/01/26 03:30:13;;;;;;;;;;;-0.20;99.90;;;-1.53;87.67;95385.78;10373921;28;2480;-84
2021/01/26 03:35:15;;;;;;;;;;;0.30;99.90;;;-1.48;88.04;95398.34;10388376;28;2122;-83
2021/01/26 03:40:16;;;;;;;;;;;-0.60;99.90;;;-1.52;87.58;95399.78;10418141;28;2511;-85
2021/01/26 03:45:18;;;;;;;;;;;1.40;99.90;;;-1.56;86.67;95417.03;10401571;28;2053;-86
2021/01/26 03:50:20;;;;;;;;;;;-0.50;99.90;;;-1.59;87.58;95412.16;10381620;28;2503;-85
2021/01/26 03:55:22;;;;;;;;;;;-0.60;99.90;;;-1.67;87.10;95427.19;10361824;28;2442;-84
2021/01/26 04:00:24;;;;;;;;;;;-0.60;99.90;;;-1.74;87.89;95431.66;10358448;28;2079;-85
2021/01/26 04:05:26;;;;;;;;;;;-0.70;99.90;;;-1.77;88.79;95439.97;10383026;28;2475;-85
2021/01/26 04:10:28;;;;;;;;;;;-0.20;99.90;;;-1.77;88.80;95442.63;10364321;28;2465;-85
2021/01/26 04:15:30;;;;;;;;;;;-0.80;99.90;;;-1.76;88.15;95438.16;10366512;28;2493;-83
2021/01/26 04:20:32;;;;;;;;;;;0.30;99.90;;;-1.72;88.27;95441.97;10387729;28;2372;-85
2021/01/26 04:25:36;;;;;;;;;;;-0.70;99.90;;;-1.69;89.09;95439.75;10378625;28;2401;-84
2021/01/26 04:30:39;;;;;;;;;;;-0.70;99.90;;;-1.72;88.91;95442.81;10363369;28;2405;-85
2021/01/26 04:35:41;;;;;;;;;;;-0.40;99.90;;;-1.87;89.12;95442.22;10376671;28;2639;-84
2021/01/26 04:40:43;;;;;;;;;;;-0.70;99.90;;;-1.81;88.43;95446.66;10362512;28;1960;-84
2021/01/26 04:45:45;;;;;;;;;;;-0.80;99.90;;;-1.88;87.98;95442.44;10379607;28;2542;-84
2021/01/26 04:50:47;;;;;;;;;;;-0.90;99.90;;;-1.87;88.72;95444.03;10359360;28;2435;-84
2021/01/26 04:55:49;;;;;;;;;;;-0.10;99.90;;;-1.96;87.50;95459.25;10368362;28;2499;-85
2021/01/26 05:00:51;;;;;;;;;;;0.30;99.90;;;-1.98;87.92;95450.72;10395057;28;2520;-85
2021/01/26 05:05:53;;;;;;;;;;;-0.90;99.90;;;-1.96;87.81;95454.78;10383279;28;2000;-83
2021/01/26 05:10:55;;;;;;;;;;;0.10;99.90;;;-1.96;87.21;95459.25;10413877;28;2294;-85
2021/01/26 05:15:57;;;;;;;;;;;-0.90;99.90;;;-1.94;87.40;95459.84;10372241;28;2572;-84
2021/01/26 05:20:58;;;;;;;;;;;-0.90;99.90;;;-1.91;87.48;95468.16;10381499;28;2583;-83
2021/01/26 05:26:04;;;;;;;;;;;-0.80;99.90;;;-1.92;86.34;95470.97;10366555;28;2435;-84
2021/01/26 05:31:08;;;;;;;;;;;0.90;99.90;;;-1.96;86.49;95470.59;10383381;28;2885;-85
2021/01/26 05:36:10;;;;;;;;;;;-0.90;99.90;;;-1.96;85.86;95469.78;10385261;28;1983;-84
2021/01/26 05:41:12;;;;;;;;;;;-0.90;99.90;;;-1.97;86.29;95482.16;10379134;28;2267;-83
2021/01/26 05:46:14;;;;;;;;;;;-0.10;99.90;;;-1.94;86.42;95486.19;10377602;28;2467;-86
2021/01/26 05:51:16;;;;;;;;;;;1.00;99.90;;;-1.94;85.55;95478.28;10373581;28;2463;-84
2021/01/26 05:56:18;;;;;;;;;;;0.70;99.90;;;-1.96;85.86;95486.41;10366547;28;2760;-83
2021/01/26 06:01:20;;;;;;;;;;;-0.20;99.90;;;-1.96;85.81;95485.59;10374215;28;2924;-85
2021/01/26 06:06:22;;;;;;;;;;;-0.90;99.90;;;-1.91;85.30;95498.94;10384972;28;1268;-86
2021/01/26 06:11:24;;;;;;;;;;;-0.90;99.90;;;-1.89;86.02;95496.94;10389290;28;2568;-85
2021/01/26 06:16:26;;;;;;;;;;;0.60;99.90;;;-1.93;84.34;95491.25;10360929;28;2492;-84
2021/01/26 06:21:28;;;;;;;;;;;-0.10;99.90;;;-1.87;84.97;95492.28;10361931;28;2433;-83
2021/01/26 06:26:30;;;;;;;;;;;-0.90;99.90;;;-1.95;84.42;95489.84;10361614;28;2134;-86
2021/01/26 06:31:32;;;;;;;;;;;-0.60;99.90;;;-1.94;84.15;95510.72;10374286;28;2432;-86
2021/01/26 06:36:35;;;;;;;;;;;0.90;99.90;;;-1.98;84.31;95495.50;10360347;28;2506;-85
2021/01/26 06:41:39;;;;;;;;;;;-0.90;99.90;;;-1.94;84.06;95505.44;10395607;28;2067;-86
2021/01/26 06:46:42;;;;;;;;;;;-0.90;99.90;;;-1.92;83.66;95497.31;10395693;28;1932;-89
2021/01/26 06:51:44;;;;;;;;;;;-0.30;99.90;;;-1.93;83.73;95506.25;10400390;28;2077;-87
2021/01/26 06:56:48;;;;;;;;;;;-0.90;99.90;;;-1.89;83.72;95518.00;10412102;28;2907;-86
2021/01/26 07:01:51;;;;;;;;;;;-0.90;99.90;;;-1.86;81.16;95520.22;10388265;28;2309;-86
2021/01/26 07:06:54;;;;;;;;;;;-0.90;99.90;;;-1.84;82.73;95520.84;10368945;28;2369;-87
2021/01/26 07:11:59;;;;;;;;;;;-0.10;99.90;;;-1.76;82.74;95525.91;10375477;28;2409;-86
2021/01/26 07:17:07;;;;;;;;;;;0.80;99.90;;;-1.75;82.68;95508.28;10368393;28;2507;-88
2021/01/26 07:22:10;;;;;;;;;;;0.60;99.90;;;-1.76;82.95;95507.47;10372334;28;2285;-87
2021/01/26 07:27:13;;;;;;;;;;;1.20;99.90;;;-1.72;84.58;95518.41;10369852;28;1979;-87
2021/01/26 07:32:15;;;;;;;;;;;-0.80;99.90;;;-1.72;83.22;95507.88;10395679;28;1575;-85
2021/01/26 07:37:18;;;;;;;;;;;-0.70;99.90;;;-1.81;83.33;95523.06;10371518;28;2382;-83
2021/01/26 07:42:23;;;;;;;;;;;-0.80;99.90;;;-1.82;83.78;95524.09;10360720;28;2100;-84
2021/01/26 07:47:26;;;;;;;;;;;0.30;99.90;;;-1.85;84.18;95528.94;10373137;28;1768;-82
2021/01/26 07:52:28;;;;;;;;;;;-0.90;99.90;;;-1.90;83.65;95548.00;10385314;28;2142;-83
2021/01/26 07:57:30;;;;;;;;;;;1.10;99.90;;;-1.84;86.26;95567.47;10368187;28;2604;-83
2021/01/26 08:02:32;;;;;;;;;;;0.60;99.90;;;-1.97;87.05;95563.00;10392915;28;2728;-84
2021/01/26 08:07:34;;;;;;;;;;;1.10;99.90;;;-2.23;89.37;95558.47;10391457;28;2815;-83
2021/01/26 08:18:11;;;;;;;;;;;-1.20;99.90;;;-2.00;90.40;95568.66;10335330;27;8699087;-86
2021/01/26 08:23:14;;;;;;;;;;;-1.10;99.90;;;-1.99;89.41;95559.75;10594227;27;2244;-84
2021/01/26 08:28:16;;;;;;;;;;;-1.00;99.90;;;-1.92;88.74;95550.81;10606647;28;2311;-87
2021/01/26 08:33:22;;;;;;;;;;;0.60;99.90;;;-1.77;87.37;95555.94;10610680;28;2385;-85
2021/01/26 08:38:25;;;;;;;;;;;-0.80;99.90;;;-1.68;87.44;95557.34;10602027;28;2223;-85
2021/01/26 08:43:28;;;;;;;;;;;0.70;99.90;;;-1.61;86.67;95554.69;10597035;28;1933;-84
2021/01/26 08:48:34;;;;;;;;;;;-0.40;99.90;;;-1.60;87.33;95556.31;10597880;28;2093;-84
2021/01/26 08:53:38;;;;;;;;;;;-0.20;99.90;;;-1.65;86.52;95562.22;10595401;28;2403;-84
2021/01/26 08:58:43;;;;;;;;;;;0.50;99.90;;;-1.53;86.25;95564.22;10606180;28;2251;-85
2021/01/26 09:03:45;;;;;;;;;;;-0.60;99.90;;;-1.30;86.06;95569.91;10591588;27;2231;-85
2021/01/26 09:08:47;;;;;;;;;;;-0.50;99.90;;;-1.40;84.81;95567.69;10588549;28;1632;-86
2021/01/26 09:13:49;;;;;;;;;;;-0.40;99.90;;;-1.34;84.59;95563.41;10597104;28;2219;-86
2021/01/26 09:18:51;;;;;;;;;;;0.50;99.90;;;-1.27;84.28;95574.78;10614386;28;2334;-86
2021/01/26 09:23:53;;;;;;;;;;;-0.30;99.90;;;-1.25;84.08;95571.94;10602103;28;1669;-87
2021/01/26 09:28:55;;;;;;;;;;;0.70;99.90;;;-1.24;83.87;95574.34;10568460;28;1294;-86
2021/01/26 09:33:57;;;;;;;;;;;-0.30;99.90;;;-1.09;84.02;95577.56;10592862;28;2334;-87
2021/01/26 09:39:05;;;;;;;;;;;0.20;99.90;;;-1.13;82.52;95581.66;10568738;28;2004;-85
2021/01/26 09:44:07;;;;;;;;;;;2.10;99.90;;;-1.10;83.27;95599.69;10562615;28;2236;-88
2021/01/26 09:49:09;;;;;;;;;;;-0.10;99.90;;;-1.07;83.99;95608.22;10572237;28;2394;-86
2021/01/26 09:54:11;;;;;;;;;;;0.60;99.90;;;-0.99;83.19;95608.00;10571954;28;2764;-86
2021/01/26 09:59:13;;;;;;;;;;;2.00;99.90;;;-0.95;81.67;95627.69;10569440;28;2069;-83
2021/01/26 10:04:15;;;;;;;;;;;0.10;99.90;;;-0.78;81.94;95614.88;10568354;28;1674;-86
2021/01/26 10:09:17;;;;;;;;;;;0.20;99.90;;;-0.66;81.32;95606.09;10567533;28;2362;-84
2021/01/26 10:14:19;;;;;;;;;;;1.90;99.90;;;-0.68;80.82;95605.50;10549993;28;1887;-84
2021/01/26 10:19:21;;;;;;;;;;;1.50;99.90;;;-0.81;80.48;95610.81;10555418;28;2014;-84
2021/01/26 10:24:23;;;;;;;;;;;0.30;99.90;;;-0.64;79.51;95616.44;10576484;28;4036;-85
2021/01/26 10:29:25;;;;;;;;;;;0.30;99.90;;;-0.51;80.67;95607.69;10575478;28;2432;-87
2021/01/26 10:34:26;;;;;;;;;;;2.10;99.90;;;-0.52;78.95;95616.63;10575632;28;1943;-85
2021/01/26 10:39:28;;;;;;;;;;;0.50;99.90;;;-0.73;83.09;95602.69;10570147;28;1807;-86
2021/01/26 10:44:30;;;;;;;;;;;1.70;99.90;;;-0.75;82.53;95619.75;10572354;28;2299;-86
2021/01/26 10:49:35;;;;;;;;;;;1.20;99.90;;;-0.60;80.61;95622.94;10559153;28;2350;-87
2021/01/26 10:54:37;;;;;;;;;;;0.30;99.90;;;-0.18;79.36;95618.13;10552198;28;2062;-87
2021/01/26 10:59:41;;;;;;;;;;;1.50;99.90;;;-0.21;79.59;95622.00;10559386;28;2207;-85
2021/01/26 11:04:43;;;;;;;;;;;2.70;99.90;;;-0.26;78.58;95632.38;10551775;28;2181;-85
2021/01/26 11:09:48;;;;;;;;;;;0.80;99.90;;;-0.15;79.21;95634.38;10553867;28;2149;-83
2021/01/26 11:14:50;;;;;;;;;;;1.80;99.90;;;-0.25;79.12;95615.53;10551728;28;2186;-86
2021/01/26 11:19:52;;;;;;;;;;;0.80;99.90;;;-0.10;79.67;95623.97;10550852;28;3123;-87
2021/01/26 11:24:54;;;;;;;;;;;2.60;99.90;;;-0.04;79.71;95639.00;10589022;28;2452;-87
2021/01/26 11:29:56;;;;;;;;;;;0.90;99.90;;;-0.32;79.39;95631.41;10572263;28;2171;-85
2021/01/26 11:34:58;;;;;;;;;;;1.60;99.90;;;-0.42;78.84;95641.59;10555923;28;2386;-84
2021/01/26 11:40:00;;;;;;;;;;;0.70;99.90;;;-0.50;79.25;95641.00;10553051;28;1853;-84
2021/01/26 11:45:06;;;;;;;;;;;0.60;99.90;;;-0.53;78.94;95654.63;10575601;28;1720;-87
2021/01/26 11:50:09;;;;;;;;;;;0.50;99.90;;;-0.61;79.02;95645.91;10552662;28;2301;-84
2021/01/26 11:55:12;;;;;;;;;;;0.40;99.90;;;-0.37;79.89;95638.31;10583031;28;2073;-85
2021/01/26 12:00:16;;;;;;;;;;;0.60;99.90;;;-0.42;79.08;95656.63;10573949;28;1896;-84
2021/01/26 12:05:18;;;;;;;;;;;2.70;99.90;;;-0.44;79.52;95635.72;10582524;28;1255;-85
2021/01/26 12:10:20;;;;;;;;;;;1.40;99.90;;;-0.35;78.52;95658.22;10585393;28;1967;-86
2021/01/26 12:15:22;;;;;;;;;;;1.10;99.90;;;-0.15;77.33;95655.50;10564602;28;2308;-85
2021/01/26 12:20:27;;;;;;;;;;;0.80;99.90;;;-0.03;76.53;95648.53;10566403;28;2022;-86
2021/01/26 12:25:29;;;;;;;;;;;1.60;99.90;;;-0.12;76.17;95631.31;10551286;28;1905;-83
2021/01/26 12:30:32;;;;;;;;;;;2.70;99.90;;;-0.40;76.33;95634.25;10570836;28;2207;-84
2021/01/26 12:35:35;;;;;;;;;;;1.10;99.90;;;-0.28;78.48;95632.59;10563726;28;2328;-83
2021/01/26 12:40:39;;;;;;;;;;;0.70;99.90;;;-0.03;77.95;95632.69;10598343;28;2015;-83
2021/01/26 12:45:41;;;;;;;;;;;0.90;99.90;;;-0.32;80.14;95634.03;10588465;28;2275;-83
2021/01/26 12:50:46;;;;;;;;;;;1.10;99.90;;;-0.27;79.90;95657.16;10552377;28;2379;-84
2021/01/26 12:55:48;;;;;;;;;;;0.70;99.90;;;-0.08;78.67;95648.34;10556152;28;1941;-84
2021/01/26 13:00:50;;;;;;;;;;;1.60;99.90;;;-0.16;81.61;95643.31;10591173;28;2075;-84
2021/01/26 13:05:52;;;;;;;;;;;0.80;99.90;;;-0.13;79.60;95650.00;10569585;28;2367;-86
2021/01/26 13:10:54;;;;;;;;;;;2.20;99.90;;;0.04;76.97;95650.34;10558158;28;2359;-86
2021/01/26 13:15:56;;;;;;;;;;;2.40;99.90;;;-0.06;77.65;95662.19;10555093;28;2334;-85
2021/01/26 13:20:58;;;;;;;;;;;0.90;99.90;;;-0.24;76.21;95653.31;10554314;28;2217;-86
2021/01/26 13:26:00;;;;;;;;;;;1.50;99.90;;;-0.23;77.61;95655.75;10567023;28;2296;-83
2021/01/26 13:31:05;;;;;;;;;;;2.10;99.90;;;-0.46;77.53;95655.41;10585178;28;2325;-84
2021/01/26 13:36:07;;;;;;;;;;;0.60;99.90;;;-0.69;77.65;95661.97;10556866;28;1913;-83
2021/01/26 13:41:09;;;;;;;;;;;0.40;99.90;;;-0.57;79.50;95676.16;10546763;28;2200;-84
2021/01/26 13:46:10;;;;;;;;;;;0.40;99.90;;;-0.56;78.55;95687.53;10560895;28;2284;-84
2021/01/26 13:51:12;;;;;;;;;;;0.40;99.90;;;-0.56;77.96;95672.50;10562620;28;2251;-84
2021/01/26 13:56:14;;;;;;;;;;;1.50;99.90;;;-0.55;78.66;95673.31;10560018;28;1995;-83
2021/01/26 14:01:16;;;;;;;;;;;2.00;99.90;;;-0.67;78.83;95670.47;10572108;28;1548;-84
2021/01/26 14:06:18;;;;;;;;;;;0.40;99.90;;;-0.70;79.15;95685.91;10590094;28;2284;-85
2021/01/26 14:11:20;;;;;;;;;;;1.70;99.90;;;-0.73;78.71;95688.97;10586457;28;2228;-84
2021/01/26 14:16:22;;;;;;;;;;;0.50;99.90;;;-0.71;78.76;95693.00;10564329;28;1882;-84
2021/01/26 14:21:29;;;;;;;;;;;1.40;99.90;;;-0.73;77.98;95696.88;10552156;28;3410;-84
2021/01/26 14:26:32;;;;;;;;;;;1.50;99.90;;;-0.68;77.97;95679.41;10557022;28;1509;-85
2021/01/26 14:31:37;;;;;;;;;;;0.30;99.90;;;-0.66;77.08;95689.78;10550462;28;2398;-83
2021/01/26 14:36:39;;;;;;;;;;;0.30;99.90;;;-0.51;77.18;95679.78;10575930;28;2663;-82
2021/01/26 14:41:41;;;;;;;;;;;2.20;99.90;;;-0.45;75.28;95683.44;10562250;28;2774;-81
2021/01/26 14:46:44;;;;;;;;;;;1.40;99.90;;;-0.37;75.77;95699.06;10568375;28;1950;-81
2021/01/26 14:51:46;;;;;;;;;;;0.60;99.90;;;-0.52;76.45;95699.28;10575506;28;2670;-82
2021/01/26 14:56:52;;;;;;;;;;;0.60;99.90;;;-0.52;76.80;95712.50;10553144;28;2696;-81
2021/01/26 15:01:54;;;;;;;;;;;0.60;99.90;;;-0.47;76.04;95698.69;10557037;28;1948;-83
2021/01/26 15:06:56;;;;;;;;;;;0.50;99.90;;;-0.46;75.63;95695.81;10580831;28;2913;-81
2021/01/26 15:11:57;;;;;;;;;;;0.60;99.90;;;-0.55;76.15;95700.53;10573308;28;2652;-84
2021/01/26 15:16:59;;;;;;;;;;;0.50;99.90;;;-0.63;77.62;95703.38;10575283;28;2074;-83
2021/01/26 15:22:05;;;;;;;;;;;1.30;99.90;;;-0.66;78.15;95710.88;10579568;28;2365;-82
2021/01/26 15:27:07;;;;;;;;;;;-1.70;99.90;;;-0.78;78.15;95721.25;10580600;28;2271;-80
2021/01/26 15:32:09;;;;;;;;;;;1.60;99.90;;;-0.93;79.74;95726.75;10557271;28;2199;-82
2021/01/26 15:37:11;;;;;;;;;;;0.20;99.90;;;-0.98;81.36;95725.72;10566686;28;2012;-83
2021/01/26 15:42:13;;;;;;;;;;;0.10;99.90;;;-1.02;80.34;95725.31;10572325;28;2180;-82
2021/01/26 15:47:15;;;;;;;;;;;0.00;99.90;;;-1.03;79.80;95733.41;10586677;28;2176;-82
2021/01/26 15:52:17;;;;;;;;;;;0.50;99.90;;;-1.07;79.69;95733.03;10596584;28;2585;-82
2021/01/26 15:57:20;;;;;;;;;;;0.80;99.90;;;-1.19;81.56;95730.19;10581601;28;2275;-83
2021/01/26 16:02:22;;;;;;;;;;;0.80;99.90;;;-1.26;83.29;95744.38;10589354;28;1673;-84
2021/01/26 16:07:25;;;;;;;;;;;-0.20;99.90;;;-1.31;84.79;95744.97;10573530;28;2604;-83
2021/01/26 16:12:27;;;;;;;;;;;-0.30;99.90;;;-1.33;85.94;95749.63;10549712;28;2255;-84
2021/01/26 16:17:33;;;;;;;;;;;1.30;99.90;;;-1.33;84.41;95756.72;10548929;28;1990;-84
2021/01/26 16:22:35;;;;;;;;;;;0.70;99.90;;;-1.39;85.46;95761.78;10567753;28;2291;-83
2021/01/26 16:27:37;;;;;;;;;;;-0.30;99.90;;;-1.35;84.52;95772.72;10550827;28;2382;-84
2021/01/26 16:32:40;;;;;;;;;;;-0.30;99.90;;;-1.28;83.79;95767.47;10582351;28;2376;-85
2021/01/26 16:37:45;;;;;;;;;;;-0.10;99.90;;;-1.25;84.56;95791.63;10575126;28;2291;-84
2021/01/26 16:42:47;;;;;;;;;;;1.20;99.90;;;-1.30;83.49;95785.34;10555175;28;1748;-84
2021/01/26 16:47:49;;;;;;;;;;;-0.20;99.90;;;-1.23;84.83;95792.25;10572499;28;2014;-84
2021/01/26 16:52:52;;;;;;;;;;;0.30;99.90;;;-1.31;83.80;95789.78;10586981;28;2363;-84
2021/01/26 16:57:54;;;;;;;;;;;-0.20;99.90;;;-1.27;85.00;95792.84;10592207;28;1947;-85
2021/01/26 17:02:56;;;;;;;;;;;-0.30;99.90;;;-1.26;84.36;95803.19;10610128;28;2282;-84
2021/01/26 17:07:59;;;;;;;;;;;-0.30;99.90;;;-1.30;84.20;95794.06;10609912;28;2584;-84
2021/01/26 17:13:04;;;;;;;;;;;-0.20;99.90;;;-1.24;83.62;95803.81;10601552;28;1519;-85
2021/01/26 17:18:05;;;;;;;;;;;1.40;99.90;;;-1.29;84.85;95808.84;10558754;28;2247;-85
2021/01/26 17:23:09;;;;;;;;;;;1.60;99.90;;;-1.31;84.33;95824.06;10595099;28;1247;-86
2021/01/26 17:28:11;;;;;;;;;;;0.30;99.90;;;-1.27;84.33;95806.84;10613815;28;2441;-84
2021/01/26 17:33:13;;;;;;;;;;;0.20;99.90;;;-1.44;86.52;95809.03;10586868;28;2382;-83
2021/01/26 17:38:14;;;;;;;;;;;-0.30;99.90;;;-1.39;86.20;95819.00;10606653;28;2248;-86
2021/01/26 17:43:16;;;;;;;;;;;-0.40;99.90;;;-1.42;86.74;95824.63;10581733;28;2201;-85
2021/01/26 17:48:18;;;;;;;;;;;1.40;99.90;;;-1.48;87.50;95835.97;10585080;28;2662;-84
2021/01/26 17:53:21;;;;;;;;;;;-0.40;99.90;;;-1.45;87.18;95835.59;10573568;28;1912;-86
2021/01/26 17:58:23;;;;;;;;;;;-0.40;99.90;;;-1.47;88.62;95848.13;10563525;28;1885;-84
2021/01/26 18:03:25;;;;;;;;;;;-0.40;99.90;;;-1.50;88.37;95845.91;10555785;28;1538;-83
2021/01/26 18:08:29;;;;;;;;;;;0.70;99.90;;;-1.47;87.22;95840.22;10563469;28;1677;-83
2021/01/26 18:13:31;;;;;;;;;;;-0.40;99.90;;;-1.44;86.13;95850.41;10571858;28;1386;-83
2021/01/26 18:18:33;;;;;;;;;;;1.00;99.90;;;-1.34;85.72;95847.38;10565571;28;2323;-84
2021/01/26 18:23:35;;;;;;;;;;;-0.30;99.90;;;-1.31;84.95;95847.81;10584422;28;1502;-83
2021/01/26 18:28:38;;;;;;;;;;;0.90;99.90;;;-1.30;83.68;95848.63;10584462;28;1166;-83
2021/01/26 18:33:40;;;;;;;;;;;-0.30;99.90;;;-1.30;83.93;95854.72;10558358;28;1677;-85
2021/01/26 18:38:43;;;;;;;;;;;1.80;99.90;;;-1.29;83.61;95855.53;10567504;28;1990;-86
2021/01/26 18:43:45;;;;;;;;;;;-0.30;99.90;;;-1.31;83.65;95879.47;10576153;28;1558;-85
2021/01/26 18:48:47;;;;;;;;;;;0.20;99.90;;;-1.30;83.85;95870.53;10574867;28;1195;-84
2021/01/26 18:53:49;;;;;;;;;;;2.00;99.90;;;-1.28;84.18;95884.31;10569317;28;1463;-85
2021/01/26 18:58:54;;;;;;;;;;;0.80;99.90;;;-1.28;85.67;95857.13;10560867;28;1998;-84
2021/01/26 19:03:56;;;;;;;;;;;0.60;99.90;;;-1.38;86.33;95879.44;10543648;28;1532;-82
2021/01/26 19:08:58;;;;;;;;;;;-0.30;99.90;;;-1.36;86.37;95890.59;10572472;28;1554;-83
2021/01/26 19:14:08;;;;;;;;;;;0.40;99.90;;;-1.35;86.16;95888.75;10545780;28;1914;-83
2021/01/26 19:19:10;;;;;;;;;;;1.10;99.90;;;-1.35;87.38;95883.50;10577046;28;1620;-83
2021/01/26 19:24:12;;;;;;;;;;;-0.30;99.90;;;-1.42;88.38;95890.56;10592665;28;1279;-83
2021/01/26 19:29:13;;;;;;;;;;;1.00;99.90;;;-1.38;87.73;95905.00;10578030;28;1562;-83
2021/01/26 19:34:18;;;;;;;;;;;0.00;99.90;;;-1.37;86.79;95890.78;10560269;28;1890;-84
2021/01/26 19:39:23;;;;;;;;;;;0.20;99.90;;;-1.33;85.17;95902.59;10583235;28;1406;-84
2021/01/26 19:44:26;;;;;;;;;;;0.70;99.90;;;-1.25;84.14;95912.97;10572619;28;1644;-86
2021/01/26 19:49:28;;;;;;;;;;;0.80;99.90;;;-1.24;84.59;95919.84;10549336;28;1372;-87
2021/01/26 19:54:34;;;;;;;;;;;-0.30;99.90;;;-1.34;85.81;95914.13;10569351;28;1894;-85
2021/01/26 19:59:40;;;;;;;;;;;-0.40;99.90;;;-1.43;86.52;95912.66;10552061;28;1578;-84
2021/01/26 20:04:48;;;;;;;;;;;1.60;99.90;;;-1.41;86.64;95908.00;10556033;28;1293;-85
2021/01/26 20:09:57;;;;;;;;;;;-0.50;99.90;;;-1.33;83.55;95912.31;10556336;28;1603;-85
2021/01/26 20:15:04;;;;;;;;;;;-0.10;99.90;;;-1.28;84.06;95910.69;10591960;28;2066;-84
2021/01/26 20:20:20;;;;;;;;;;;0.20;99.90;;;-1.23;82.29;95916.19;10565620;28;1715;-84
2021/01/26 20:25:29;;;;;;;;;;;1.10;99.90;;;-1.15;81.24;95926.59;10570499;28;1765;-84
2021/01/26 20:30:34;;;;;;;;;;;-0.20;99.90;;;-1.16;81.08;95935.50;10582409;28;3359;-85
2021/01/26 20:35:42;;;;;;;;;;;1.50;99.90;;;-1.19;81.49;95943.81;10572452;28;2328;-84
2021/01/26 20:40:49;;;;;;;;;;;0.70;99.90;;;-1.20;82.08;95949.31;10560108;28;1598;-83
2021/01/26 20:45:58;;;;;;;;;;;-0.20;99.90;;;-1.22;81.84;95941.56;10570751;28;1511;-84
2021/01/26 20:51:14;;;;;;;;;;;1.30;99.90;;;-1.17;81.39;95943.63;10571719;28;2974;-84
2021/01/26 20:56:23;;;;;;;;;;;0.90;99.90;;;-1.17;81.41;95941.81;10543891;28;1948;-84
2021/01/26 21:01:29;;;;;;;;;;;-0.10;99.90;;;-1.09;81.05;95946.09;10556736;28;1662;-85
2021/01/26 21:06:32;;;;;;;;;;;0.00;99.90;;;-1.06;81.40;95939.63;10562404;28;1307;-85
2021/01/26 21:11:42;;;;;;;;;;;-0.20;99.90;;;-1.13;82.68;95935.13;10561736;28;1635;-85
2021/01/26 21:16:45;;;;;;;;;;;0.90;99.90;;;-1.14;82.87;95928.22;10556564;28;1945;-84
2021/01/26 21:21:47;;;;;;;;;;;-0.10;99.90;;;-1.11;82.89;95933.09;10561688;28;1319;-84
2021/01/26 21:26:53;;;;;;;;;;;-0.10;99.90;;;-1.10;81.48;95924.16;10581652;28;1721;-85
2021/01/26 21:32:02;;;;;;;;;;;1.30;99.90;;;-1.09;80.52;95924.97;10604017;28;2446;-83
2021/01/26 21:37:05;;;;;;;;;;;1.30;99.90;;;-1.07;81.28;95938.00;10598110;28;2193;-84
2021/01/26 21:42:13;;;;;;;;;;;1.40;99.90;;;-1.00;80.50;95937.00;10586308;28;2311;-85
2021/01/26 21:47:16;;;;;;;;;;;0.00;99.90;;;-1.01;79.65;95943.31;10580116;28;1744;-84
2021/01/26 21:52:19;;;;;;;;;;;1.40;99.90;;;-1.10;80.18;95950.56;10569076;28;2346;-83
2021/01/26 21:57:23;;;;;;;;;;;2.40;99.90;;;-1.10;81.49;95962.94;10578474;28;1959;-84
2021/01/26 22:02:29;;;;;;;;;;;1.00;99.90;;;-1.07;81.77;95959.91;10605974;28;2288;-85
2021/01/26 22:07:31;;;;;;;;;;;-0.10;99.90;;;-1.11;81.50;95959.47;10600139;28;2275;-83
2021/01/26 22:12:37;;;;;;;;;;;-0.10;99.90;;;-1.10;82.15;95961.09;10593107;28;2314;-84
2021/01/26 22:17:40;;;;;;;;;;;-0.10;99.90;;;-1.16;82.99;95967.16;10567412;28;1958;-82
2021/01/26 22:22:44;;;;;;;;;;;0.60;99.90;;;-1.15;83.73;95973.25;10565853;28;2505;-83
2021/01/26 22:27:47;;;;;;;;;;;1.50;99.90;;;-1.28;84.74;95974.00;10610550;28;2104;-83
2021/01/26 22:32:49;;;;;;;;;;;1.20;99.90;;;-1.31;84.39;95965.69;10617061;28;2145;-85
2021/01/26 22:37:50;;;;;;;;;;;1.60;99.90;;;-1.20;84.64;95973.03;10590894;28;2189;-82
2021/01/26 22:42:52;;;;;;;;;;;-0.20;99.90;;;-1.19;85.25;95972.84;10566843;28;2473;-85
2021/01/26 22:47:54;;;;;;;;;;;-0.20;99.90;;;-1.18;83.55;95966.56;10590134;28;2274;-84
2021/01/26 22:52:56;;;;;;;;;;;-0.10;99.90;;;-1.17;83.51;95965.53;10598777;28;2346;-83
2021/01/26 22:57:58;;;;;;;;;;;0.60;99.90;;;-1.10;81.49;95961.09;10575933;28;2196;-84
2021/01/26 23:03:00;;;;;;;;;;;0.40;99.90;;;-1.07;81.34;95961.75;10582832;28;2244;-83
2021/01/26 23:08:05;;;;;;;;;;;-0.10;99.90;;;-1.03;81.31;95958.50;10593991;28;2161;-82
2021/01/26 23:13:07;;;;;;;;;;;0.00;99.90;;;-1.01;79.93;95963.59;10573513;28;2008;-82
2021/01/26 23:18:10;;;;;;;;;;;0.00;99.90;;;-0.95;79.73;95952.25;10579326;28;2330;-83
2021/01/26 23:23:12;;;;;;;;;;;0.00;99.90;;;-0.96;80.52;95955.88;10571599;28;2267;-83
2021/01/26 23:28:14;;;;;;;;;;;0.10;99.90;;;-1.01;80.08;95953.03;10561335;28;2000;-83